PWSweather.com
Personal Weather Stations
Station Observations
TENMILE2
Watts Bar Lake, Ten Mile, TN 37880

Watts Bar LakeTen Mile, TN 37880

Lat: 35.686, Lon: -84.7068

Elevation: 767

Station Type: Davis VP2

http://www.wattsbarweather.net

High Low Average
Temperature 68.4°F20.2°C 60.4°F15.8°C 63.5°F17.5°C
Dew Point 63.3°F17.4°C 56.2°F13.4°C 59.8°F15.4°C
Winds 9.5 mph 15.3 kmh Calm Calm 2.0 mph S3.2 kmh S
Wind Gusts 20.0 mph32.2 kmh -- 6.0 mph9.7 kmh
Humidity 95% 78% 88%
Pressure 29.85 in1010.8 mb 29.64 in1003.7 mb -
Precipitation 0.03 in0.8 mm - -
Hour Temp Dew Point Humidity Winds Wind Gusts Pressure Precip Precip Rate Daily Precip Total
12:04 AM 61.0°F16.1°C 56.5°F13.6°C 85% 9.5 mph N15.3 kmh N 18.8 mph30.3 kmh 29.72 in1006.4 mb 0.00 in0.0 mm 0.00 in0.0 mm 0.00 in0.0 mm
12:09 AM 61.1°F16.2°C 56.6°F13.7°C 85% 8.8 mph N14.2 kmh N 18.8 mph30.3 kmh 29.72 in1006.4 mb 0.00 in0.0 mm 0.00 in0.0 mm 0.00 in0.0 mm
12:14 AM 61.2°F16.2°C 56.7°F13.7°C 85% 7.4 mph N11.9 kmh N 13.8 mph22.2 kmh 29.72 in1006.4 mb 0.00 in0.0 mm 0.00 in0.0 mm 0.00 in0.0 mm
12:19 AM 61.2°F16.2°C 56.3°F13.5°C 84% 8.3 mph N13.4 kmh N 16.3 mph26.2 kmh 29.72 in1006.4 mb 0.00 in0.0 mm 0.00 in0.0 mm 0.00 in0.0 mm
12:24 AM 61.3°F16.3°C 56.4°F13.6°C 84% 4.2 mph NNW6.8 kmh NNW 16.3 mph26.2 kmh 29.71 in1006.1 mb 0.00 in0.0 mm 0.00 in0.0 mm 0.00 in0.0 mm
12:29 AM 61.3°F16.3°C 56.4°F13.6°C 84% 5.0 mph N8.0 kmh N 13.8 mph22.2 kmh 29.71 in1006.1 mb 0.00 in0.0 mm 0.00 in0.0 mm 0.00 in0.0 mm
12:34 AM 61.4°F16.3°C 56.5°F13.6°C 84% 6.6 mph N10.6 kmh N 15.0 mph24.1 kmh 29.70 in1005.8 mb 0.00 in0.0 mm 0.00 in0.0 mm 0.00 in0.0 mm
12:39 AM 61.4°F16.3°C 56.2°F13.4°C 83% 5.3 mph N8.5 kmh N 15.0 mph24.1 kmh 29.71 in1006.1 mb 0.00 in0.0 mm 0.00 in0.0 mm 0.00 in0.0 mm
12:44 AM 61.4°F16.3°C 56.5°F13.6°C 84% 5.0 mph NE8.0 kmh NE 12.5 mph20.1 kmh 29.70 in1005.8 mb 0.00 in0.0 mm 0.00 in0.0 mm 0.00 in0.0 mm
12:49 AM 61.4°F16.3°C 56.2°F13.4°C 83% 6.3 mph N10.1 kmh N 20.0 mph32.2 kmh 29.70 in1005.8 mb 0.00 in0.0 mm 0.00 in0.0 mm 0.00 in0.0 mm
12:54 AM 61.5°F16.4°C 56.3°F13.5°C 83% 5.5 mph N8.9 kmh N 20.0 mph32.2 kmh 29.70 in1005.8 mb 0.00 in0.0 mm 0.00 in0.0 mm 0.00 in0.0 mm
12:59 AM 61.6°F16.4°C 56.4°F13.6°C 83% 6.1 mph N9.8 kmh N 16.0 mph25.7 kmh 29.69 in1005.4 mb 0.00 in0.0 mm 0.00 in0.0 mm 0.00 in0.0 mm
01:04 AM 61.8°F16.6°C 56.6°F13.7°C 83% 8.4 mph N13.5 kmh N 16.3 mph26.2 kmh 29.69 in1005.4 mb 0.00 in0.0 mm 0.00 in0.0 mm 0.00 in0.0 mm
01:09 AM 61.8°F16.6°C 56.3°F13.5°C 82% 8.6 mph N13.8 kmh N 20.0 mph32.2 kmh 29.70 in1005.8 mb 0.00 in0.0 mm 0.00 in0.0 mm 0.00 in0.0 mm
01:14 AM 62.0°F16.7°C 56.5°F13.6°C 82% 7.5 mph N12.1 kmh N 20.0 mph32.2 kmh 29.70 in1005.8 mb 0.00 in0.0 mm 0.00 in0.0 mm 0.00 in0.0 mm
01:19 AM 62.0°F16.7°C 56.5°F13.6°C 82% 5.7 mph NNW9.2 kmh NNW 15.0 mph24.1 kmh 29.69 in1005.4 mb 0.00 in0.0 mm 0.00 in0.0 mm 0.00 in0.0 mm
01:24 AM 62.0°F16.7°C 56.5°F13.6°C 82% 7.3 mph N11.7 kmh N 17.5 mph28.2 kmh 29.69 in1005.4 mb 0.00 in0.0 mm 0.00 in0.0 mm 0.00 in0.0 mm
01:29 AM 62.0°F16.7°C 56.5°F13.6°C 82% 7.5 mph N12.1 kmh N 17.5 mph28.2 kmh 29.69 in1005.4 mb 0.00 in0.0 mm 0.00 in0.0 mm 0.00 in0.0 mm
01:34 AM 62.0°F16.7°C 56.4°F13.6°C 82% 4.3 mph NNE6.9 kmh NNE 16.3 mph26.2 kmh 29.69 in1005.4 mb 0.00 in0.0 mm 0.00 in0.0 mm 0.00 in0.0 mm
01:39 AM 62.0°F16.7°C 56.8°F13.8°C 83% 4.5 mph N7.2 kmh N 16.3 mph26.2 kmh 29.68 in1005.1 mb 0.00 in0.0 mm 0.00 in0.0 mm 0.00 in0.0 mm
01:45 AM 62.0°F16.7°C 56.5°F13.6°C 82% 6.9 mph N11.1 kmh N 15.0 mph24.1 kmh 29.68 in1005.1 mb 0.00 in0.0 mm 0.00 in0.0 mm 0.00 in0.0 mm
01:50 AM 62.0°F16.7°C 56.5°F13.6°C 82% 7.5 mph NNE12.1 kmh NNE 15.0 mph24.1 kmh 29.68 in1005.1 mb 0.00 in0.0 mm 0.00 in0.0 mm 0.00 in0.0 mm
01:55 AM 62.1°F16.7°C 56.5°F13.6°C 82% 4.0 mph NNE6.4 kmh NNE 12.5 mph20.1 kmh 29.68 in1005.1 mb 0.00 in0.0 mm 0.00 in0.0 mm 0.00 in0.0 mm
02:00 AM 62.2°F16.8°C 56.6°F13.7°C 82% 3.9 mph NNW6.3 kmh NNW 16.3 mph26.2 kmh 29.68 in1005.1 mb 0.00 in0.0 mm 0.00 in0.0 mm 0.00 in0.0 mm
02:05 AM 62.2°F16.8°C 57.0°F13.9°C 83% 2.6 mph NNE4.2 kmh NNE 16.3 mph26.2 kmh 29.68 in1005.1 mb 0.00 in0.0 mm 0.00 in0.0 mm 0.00 in0.0 mm
02:10 AM 62.3°F16.8°C 56.8°F13.8°C 82% 4.8 mph NNE7.7 kmh NNE 15.0 mph24.1 kmh 29.67 in1004.7 mb 0.00 in0.0 mm 0.00 in0.0 mm 0.00 in0.0 mm
02:15 AM 62.4°F16.9°C 56.9°F13.8°C 82% 5.5 mph N8.9 kmh N 12.5 mph20.1 kmh 29.67 in1004.7 mb 0.00 in0.0 mm 0.00 in0.0 mm 0.00 in0.0 mm
02:20 AM 62.5°F16.9°C 57.0°F13.9°C 82% 5.8 mph NNE9.3 kmh NNE 12.5 mph20.1 kmh 29.67 in1004.7 mb 0.00 in0.0 mm 0.00 in0.0 mm 0.00 in0.0 mm
02:25 AM 62.6°F17.0°C 57.1°F13.9°C 82% 5.2 mph NNE8.4 kmh NNE 12.5 mph20.1 kmh 29.67 in1004.7 mb 0.00 in0.0 mm 0.00 in0.0 mm 0.00 in0.0 mm
02:30 AM 62.7°F17.1°C 57.2°F14.0°C 82% 5.7 mph NNW9.2 kmh NNW 13.8 mph22.2 kmh 29.67 in1004.7 mb 0.00 in0.0 mm 0.00 in0.0 mm 0.00 in0.0 mm
02:35 AM 63.0°F17.2°C 57.1°F13.9°C 81% 4.9 mph N7.9 kmh N 20.0 mph32.2 kmh 29.67 in1004.7 mb 0.00 in0.0 mm 0.00 in0.0 mm 0.00 in0.0 mm
02:40 AM 63.0°F17.2°C 57.1°F13.9°C 81% 7.4 mph N11.9 kmh N 20.0 mph32.2 kmh 29.67 in1004.7 mb 0.00 in0.0 mm 0.00 in0.0 mm 0.00 in0.0 mm
02:45 AM 63.2°F17.3°C 57.3°F14.1°C 81% 5.9 mph N9.5 kmh N 17.0 mph27.4 kmh 29.67 in1004.7 mb 0.00 in0.0 mm 0.00 in0.0 mm 0.00 in0.0 mm
02:50 AM 63.2°F17.3°C 57.3°F14.1°C 81% 6.8 mph 10.9 kmh 17.0 mph27.4 kmh 29.67 in1004.7 mb 0.00 in0.0 mm 0.00 in0.0 mm 0.00 in0.0 mm
02:55 AM 63.3°F17.4°C 57.4°F14.1°C 81% 6.4 mph N10.3 kmh N 15.0 mph24.1 kmh 29.66 in1004.4 mb 0.00 in0.0 mm 0.00 in0.0 mm 0.00 in0.0 mm
03:00 AM 63.3°F17.4°C 57.4°F14.1°C 81% 8.0 mph N12.9 kmh N 17.5 mph28.2 kmh 29.66 in1004.4 mb 0.00 in0.0 mm 0.00 in0.0 mm 0.00 in0.0 mm
03:05 AM 63.5°F17.5°C 57.2°F14.0°C 80% 7.4 mph N11.9 kmh N 17.5 mph28.2 kmh 29.66 in1004.4 mb 0.00 in0.0 mm 0.00 in0.0 mm 0.00 in0.0 mm
03:10 AM 63.5°F17.5°C 57.2°F14.0°C 80% 8.5 mph N13.7 kmh N 17.5 mph28.2 kmh 29.65 in1004.1 mb 0.00 in0.0 mm 0.00 in0.0 mm 0.00 in0.0 mm
03:15 AM 63.7°F17.6°C 57.5°F14.2°C 80% 6.1 mph N9.8 kmh N 17.5 mph28.2 kmh 29.65 in1004.1 mb 0.00 in0.0 mm 0.00 in0.0 mm 0.00 in0.0 mm
03:20 AM 63.7°F17.6°C 57.5°F14.2°C 80% 6.8 mph N10.9 kmh N 17.5 mph28.2 kmh 29.65 in1004.1 mb 0.00 in0.0 mm 0.00 in0.0 mm 0.00 in0.0 mm
03:25 AM 63.7°F17.6°C 57.5°F14.2°C 80% 5.7 mph N9.2 kmh N 14.0 mph22.5 kmh 29.65 in1004.1 mb 0.00 in0.0 mm 0.00 in0.0 mm 0.00 in0.0 mm
03:30 AM 63.8°F17.7°C 57.6°F14.2°C 80% 7.3 mph N11.7 kmh N 14.0 mph22.5 kmh 29.65 in1004.1 mb 0.00 in0.0 mm 0.00 in0.0 mm 0.00 in0.0 mm
03:35 AM 63.9°F17.7°C 57.3°F14.1°C 79% 6.2 mph N10.0 kmh N 15.0 mph24.1 kmh 29.64 in1003.7 mb 0.00 in0.0 mm 0.00 in0.0 mm 0.00 in0.0 mm
03:40 AM 64.0°F17.8°C 57.8°F14.3°C 80% 5.2 mph N8.4 kmh N 15.0 mph24.1 kmh 29.65 in1004.1 mb 0.00 in0.0 mm 0.00 in0.0 mm 0.00 in0.0 mm
03:45 AM 64.1°F17.8°C 57.5°F14.2°C 79% 5.5 mph NNE8.9 kmh NNE 13.8 mph22.2 kmh 29.64 in1003.7 mb 0.00 in0.0 mm 0.00 in0.0 mm 0.00 in0.0 mm
03:50 AM 64.1°F17.8°C 57.5°F14.2°C 79% 9.5 mph N15.3 kmh N 17.5 mph28.2 kmh 29.64 in1003.7 mb 0.00 in0.0 mm 0.00 in0.0 mm 0.00 in0.0 mm
03:55 AM 64.1°F17.8°C 57.5°F14.2°C 79% 4.7 mph N7.6 kmh N 17.5 mph28.2 kmh 29.64 in1003.7 mb 0.00 in0.0 mm 0.00 in0.0 mm 0.00 in0.0 mm
04:00 AM 64.1°F17.8°C 57.5°F14.2°C 79% 4.6 mph NE7.4 kmh NE 13.8 mph22.2 kmh 29.64 in1003.7 mb 0.00 in0.0 mm 0.00 in0.0 mm 0.00 in0.0 mm
04:05 AM 64.1°F17.8°C 57.5°F14.2°C 79% 5.3 mph NE8.5 kmh NE 16.3 mph26.2 kmh 29.64 in1003.7 mb 0.00 in0.0 mm 0.00 in0.0 mm 0.00 in0.0 mm
04:10 AM 64.1°F17.8°C 57.5°F14.2°C 79% 6.1 mph N9.8 kmh N 16.3 mph26.2 kmh 29.64 in1003.7 mb 0.00 in0.0 mm 0.00 in0.0 mm 0.00 in0.0 mm
04:15 AM 64.1°F17.8°C 57.9°F14.4°C 80% 5.5 mph N8.9 kmh N 13.0 mph20.9 kmh 29.64 in1003.7 mb 0.00 in0.0 mm 0.00 in0.0 mm 0.00 in0.0 mm
04:20 AM 64.2°F17.9°C 57.6°F14.2°C 79% 5.5 mph N8.9 kmh N 15.0 mph24.1 kmh 29.64 in1003.7 mb 0.00 in0.0 mm 0.00 in0.0 mm 0.00 in0.0 mm
04:25 AM 64.2°F17.9°C 57.6°F14.2°C 79% 7.2 mph NNW11.6 kmh NNW 15.0 mph24.1 kmh 29.64 in1003.7 mb 0.00 in0.0 mm 0.00 in0.0 mm 0.00 in0.0 mm
04:30 AM 64.3°F17.9°C 57.7°F14.3°C 79% 7.0 mph N11.3 kmh N 16.3 mph26.2 kmh 29.64 in1003.7 mb 0.00 in0.0 mm 0.00 in0.0 mm 0.00 in0.0 mm
04:35 AM 64.2°F17.9°C 57.6°F14.2°C 79% 6.1 mph NNW9.8 kmh NNW 16.3 mph26.2 kmh 29.64 in1003.7 mb 0.00 in0.0 mm 0.00 in0.0 mm 0.00 in0.0 mm
04:40 AM 64.3°F17.9°C 58.1°F14.5°C 80% 6.3 mph N10.1 kmh N 15.0 mph24.1 kmh 29.64 in1003.7 mb 0.00 in0.0 mm 0.00 in0.0 mm 0.00 in0.0 mm
04:45 AM 64.4°F18.0°C 57.8°F14.3°C 79% 8.9 mph N14.3 kmh N 16.3 mph26.2 kmh 29.64 in1003.7 mb 0.00 in0.0 mm 0.00 in0.0 mm 0.00 in0.0 mm
04:51 AM 64.3°F17.9°C 58.1°F14.5°C 80% 6.8 mph N10.9 kmh N 16.3 mph26.2 kmh 29.64 in1003.7 mb 0.00 in0.0 mm 0.00 in0.0 mm 0.00 in0.0 mm
04:55 AM 64.3°F17.9°C 57.7°F14.3°C 79% 7.8 mph N12.6 kmh N 15.0 mph24.1 kmh 29.64 in1003.7 mb 0.00 in0.0 mm 0.00 in0.0 mm 0.00 in0.0 mm
05:01 AM 64.5°F18.1°C 57.8°F14.3°C 79% 5.2 mph NNE8.4 kmh NNE 16.3 mph26.2 kmh 29.64 in1003.7 mb 0.00 in0.0 mm 0.00 in0.0 mm 0.00 in0.0 mm
05:06 AM 64.4°F18.0°C 58.1°F14.5°C 80% 6.6 mph N10.6 kmh N 16.3 mph26.2 kmh 29.64 in1003.7 mb 0.00 in0.0 mm 0.00 in0.0 mm 0.00 in0.0 mm
05:11 AM 64.5°F18.1°C 58.2°F14.6°C 80% 6.1 mph N9.8 kmh N 14.0 mph22.5 kmh 29.64 in1003.7 mb 0.00 in0.0 mm 0.00 in0.0 mm 0.00 in0.0 mm
05:16 AM 64.6°F18.1°C 58.4°F14.7°C 80% 7.2 mph NNW11.6 kmh NNW 14.0 mph22.5 kmh 29.64 in1003.7 mb 0.00 in0.0 mm 0.00 in0.0 mm 0.00 in0.0 mm
05:21 AM 64.5°F18.1°C 58.3°F14.6°C 80% 6.7 mph N10.8 kmh N 12.5 mph20.1 kmh 29.64 in1003.7 mb 0.00 in0.0 mm 0.00 in0.0 mm 0.00 in0.0 mm
05:26 AM 64.5°F18.1°C 58.3°F14.6°C 80% 5.9 mph N9.5 kmh N 11.3 mph18.2 kmh 29.64 in1003.7 mb 0.00 in0.0 mm 0.00 in0.0 mm 0.00 in0.0 mm
05:31 AM 64.5°F18.1°C 58.3°F14.6°C 80% 4.3 mph N6.9 kmh N 11.3 mph18.2 kmh 29.64 in1003.7 mb 0.00 in0.0 mm 0.00 in0.0 mm 0.00 in0.0 mm
05:36 AM 64.5°F18.1°C 58.3°F14.6°C 80% 4.6 mph N7.4 kmh N 11.3 mph18.2 kmh 29.64 in1003.7 mb 0.00 in0.0 mm 0.00 in0.0 mm 0.00 in0.0 mm
05:41 AM 64.5°F18.1°C 58.3°F14.6°C 80% 2.3 mph N3.7 kmh N 11.3 mph18.2 kmh 29.64 in1003.7 mb 0.00 in0.0 mm 0.00 in0.0 mm 0.00 in0.0 mm
05:46 AM 64.4°F18.0°C 58.5°F14.7°C 81% 4.4 mph N7.1 kmh N 13.8 mph22.2 kmh 29.64 in1003.7 mb 0.00 in0.0 mm 0.00 in0.0 mm 0.00 in0.0 mm
05:51 AM 64.7°F18.2°C 58.5°F14.7°C 80% 2.9 mph NNE4.7 kmh NNE 15.0 mph24.1 kmh 29.64 in1003.7 mb 0.00 in0.0 mm 0.00 in0.0 mm 0.00 in0.0 mm
05:56 AM 64.9°F18.3°C 58.7°F14.8°C 80% 4.1 mph N6.6 kmh N 15.0 mph24.1 kmh 29.64 in1003.7 mb 0.00 in0.0 mm 0.00 in0.0 mm 0.00 in0.0 mm
06:01 AM 65.0°F18.3°C 58.7°F14.8°C 80% 3.6 mph N5.8 kmh N 16.3 mph26.2 kmh 29.64 in1003.7 mb 0.00 in0.0 mm 0.00 in0.0 mm 0.00 in0.0 mm
06:06 AM 65.1°F18.4°C 58.8°F14.9°C 80% 4.9 mph NE7.9 kmh NE 16.3 mph26.2 kmh 29.64 in1003.7 mb 0.00 in0.0 mm 0.00 in0.0 mm 0.00 in0.0 mm
06:11 AM 65.2°F18.4°C 58.5°F14.7°C 79% 5.2 mph 8.4 kmh 13.8 mph22.2 kmh 29.65 in1004.1 mb 0.00 in0.0 mm 0.00 in0.0 mm 0.00 in0.0 mm
06:16 AM 65.2°F18.4°C 58.9°F14.9°C 80% 3.7 mph N6.0 kmh N 13.8 mph22.2 kmh 29.65 in1004.1 mb 0.00 in0.0 mm 0.00 in0.0 mm 0.00 in0.0 mm
06:21 AM 65.4°F18.6°C 59.1°F15.1°C 80% 3.3 mph NNE5.3 kmh NNE 11.0 mph17.7 kmh 29.65 in1004.1 mb 0.00 in0.0 mm 0.00 in0.0 mm 0.00 in0.0 mm
06:26 AM 65.4°F18.6°C 58.8°F14.9°C 79% 7.8 mph N12.6 kmh N 13.8 mph22.2 kmh 29.65 in1004.1 mb 0.00 in0.0 mm 0.00 in0.0 mm 0.00 in0.0 mm
06:31 AM 65.6°F18.7°C 59.0°F15.0°C 79% 4.6 mph NE7.4 kmh NE 13.8 mph22.2 kmh 29.66 in1004.4 mb 0.00 in0.0 mm 0.00 in0.0 mm 0.00 in0.0 mm
06:36 AM 65.6°F18.7°C 59.0°F15.0°C 79% 3.8 mph N6.1 kmh N 15.0 mph24.1 kmh 29.66 in1004.4 mb 0.00 in0.0 mm 0.00 in0.0 mm 0.00 in0.0 mm
06:41 AM 65.7°F18.7°C 59.1°F15.1°C 79% 3.7 mph NE6.0 kmh NE 15.0 mph24.1 kmh 29.66 in1004.4 mb 0.00 in0.0 mm 0.00 in0.0 mm 0.00 in0.0 mm
06:46 AM 65.6°F18.7°C 59.0°F15.0°C 79% 2.7 mph NNE4.3 kmh NNE 13.0 mph20.9 kmh 29.66 in1004.4 mb 0.00 in0.0 mm 0.00 in0.0 mm 0.00 in0.0 mm
06:51 AM 65.6°F18.7°C 59.0°F15.0°C 79% 1.6 mph NE2.6 kmh NE 13.0 mph20.9 kmh 29.67 in1004.7 mb 0.00 in0.0 mm 0.00 in0.0 mm 0.00 in0.0 mm
06:56 AM 65.6°F18.7°C 59.0°F15.0°C 79% 2.2 mph NNE3.5 kmh NNE 10.0 mph16.1 kmh 29.67 in1004.7 mb 0.00 in0.0 mm 0.00 in0.0 mm 0.00 in0.0 mm
07:01 AM 65.6°F18.7°C 59.0°F15.0°C 79% 1.9 mph NE3.1 kmh NE 10.0 mph16.1 kmh 29.68 in1005.1 mb 0.00 in0.0 mm 0.00 in0.0 mm 0.00 in0.0 mm
07:06 AM 65.6°F18.7°C 59.3°F15.2°C 80% 1.9 mph E3.1 kmh E 9.0 mph14.5 kmh 29.68 in1005.1 mb 0.00 in0.0 mm 0.00 in0.0 mm 0.00 in0.0 mm
07:11 AM 65.4°F18.6°C 58.7°F14.8°C 79% 3.3 mph NNW5.3 kmh NNW 9.0 mph14.5 kmh 29.68 in1005.1 mb 0.00 in0.0 mm 0.00 in0.0 mm 0.00 in0.0 mm
07:16 AM 65.4°F18.6°C 59.4°F15.2°C 81% 1.3 mph ENE2.1 kmh ENE 8.8 mph14.2 kmh 29.69 in1005.4 mb 0.00 in0.0 mm 0.00 in0.0 mm 0.00 in0.0 mm
07:21 AM 65.3°F18.5°C 59.3°F15.2°C 81% Calm Calm 8.0 mph12.9 kmh 29.69 in1005.4 mb 0.00 in0.0 mm 0.00 in0.0 mm 0.00 in0.0 mm
07:26 AM 65.1°F18.4°C 60.2°F15.7°C 84% Calm Calm 8.0 mph12.9 kmh 29.69 in1005.4 mb 0.00 in0.0 mm 0.00 in0.0 mm 0.00 in0.0 mm
07:31 AM 64.9°F18.3°C 59.6°F15.3°C 83% Calm Calm 3.0 mph4.8 kmh 29.69 in1005.4 mb 0.00 in0.0 mm 0.00 in0.0 mm 0.00 in0.0 mm
07:36 AM 64.8°F18.2°C 59.2°F15.1°C 82% 2.1 mph NNE3.4 kmh NNE 3.8 mph6.1 kmh 29.70 in1005.8 mb 0.00 in0.0 mm 0.00 in0.0 mm 0.00 in0.0 mm
07:41 AM 64.8°F18.2°C 59.6°F15.3°C 83% 1.3 mph NNE2.1 kmh NNE 3.8 mph6.1 kmh 29.70 in1005.8 mb 0.00 in0.0 mm 0.00 in0.0 mm 0.00 in0.0 mm
07:46 AM 64.5°F18.1°C 59.9°F15.5°C 85% 1.3 mph NNE2.1 kmh NNE 3.0 mph4.8 kmh 29.70 in1005.8 mb 0.00 in0.0 mm 0.00 in0.0 mm 0.00 in0.0 mm
07:51 AM 64.5°F18.1°C 59.6°F15.3°C 84% 1.6 mph N2.6 kmh N 3.0 mph4.8 kmh 29.70 in1005.8 mb 0.00 in0.0 mm 0.00 in0.0 mm 0.00 in0.0 mm
07:56 AM 64.5°F18.1°C 60.2°F15.7°C 86% Calm Calm 2.5 mph4.0 kmh 29.70 in1005.8 mb 0.00 in0.0 mm 0.00 in0.0 mm 0.00 in0.0 mm
08:01 AM 64.5°F18.1°C 60.2°F15.7°C 86% Calm Calm 2.0 mph3.2 kmh 29.70 in1005.8 mb 0.00 in0.0 mm 0.00 in0.0 mm 0.00 in0.0 mm
08:06 AM 64.5°F18.1°C 60.5°F15.8°C 87% 1.3 mph NNE2.1 kmh NNE 2.0 mph3.2 kmh 29.70 in1005.8 mb 0.00 in0.0 mm 0.00 in0.0 mm 0.00 in0.0 mm
08:11 AM 64.5°F18.1°C 60.5°F15.8°C 87% Calm Calm 1.3 mph2.1 kmh 29.70 in1005.8 mb 0.00 in0.0 mm 0.00 in0.0 mm 0.00 in0.0 mm
08:16 AM 64.5°F18.1°C 60.9°F16.1°C 88% Calm Calm 1.3 mph2.1 kmh 29.71 in1006.1 mb 0.00 in0.0 mm 0.00 in0.0 mm 0.00 in0.0 mm
08:21 AM 64.3°F17.9°C 61.0°F16.1°C 89% Calm Calm 1.0 mph1.6 kmh 29.71 in1006.1 mb 0.00 in0.0 mm 0.00 in0.0 mm 0.00 in0.0 mm
08:26 AM 64.1°F17.8°C 61.1°F16.2°C 90% 1.3 mph E2.1 kmh E 1.3 mph2.1 kmh 29.71 in1006.1 mb 0.00 in0.0 mm 0.00 in0.0 mm 0.00 in0.0 mm
08:31 AM 63.9°F17.7°C 61.2°F16.2°C 91% Calm Calm 1.3 mph2.1 kmh 29.71 in1006.1 mb 0.00 in0.0 mm 0.00 in0.0 mm 0.00 in0.0 mm
08:36 AM 63.8°F17.7°C 61.1°F16.2°C 91% Calm Calm -- 29.71 in1006.1 mb 0.00 in0.0 mm 0.00 in0.0 mm 0.00 in0.0 mm
08:41 AM 63.8°F17.7°C 61.4°F16.3°C 92% Calm Calm -- 29.71 in1006.1 mb 0.00 in0.0 mm 0.00 in0.0 mm 0.00 in0.0 mm
08:46 AM 63.8°F17.7°C 61.4°F16.3°C 92% Calm Calm -- 29.71 in1006.1 mb 0.00 in0.0 mm 0.00 in0.0 mm 0.00 in0.0 mm
08:51 AM 63.8°F17.7°C 61.4°F16.3°C 92% Calm Calm -- 29.72 in1006.4 mb 0.00 in0.0 mm 0.00 in0.0 mm 0.00 in0.0 mm
08:56 AM 63.7°F17.6°C 61.3°F16.3°C 92% 1.3 mph SSE2.1 kmh SSE 1.3 mph2.1 kmh 29.71 in1006.1 mb 0.00 in0.0 mm 0.00 in0.0 mm 0.00 in0.0 mm
09:01 AM 63.7°F17.6°C 61.3°F16.3°C 92% Calm Calm 1.3 mph2.1 kmh 29.72 in1006.4 mb 0.00 in0.0 mm 0.00 in0.0 mm 0.00 in0.0 mm
09:06 AM 63.7°F17.6°C 61.6°F16.4°C 93% Calm Calm 1.0 mph1.6 kmh 29.72 in1006.4 mb 0.00 in0.0 mm 0.00 in0.0 mm 0.00 in0.0 mm
09:11 AM 63.7°F17.6°C 61.6°F16.4°C 93% Calm Calm 1.0 mph1.6 kmh 29.72 in1006.4 mb 0.00 in0.0 mm 0.00 in0.0 mm 0.00 in0.0 mm
09:16 AM 63.6°F17.6°C 61.5°F16.4°C 93% Calm Calm -- 29.72 in1006.4 mb 0.00 in0.0 mm 0.00 in0.0 mm 0.00 in0.0 mm
09:21 AM 63.6°F17.6°C 61.5°F16.4°C 93% Calm Calm -- 29.72 in1006.4 mb 0.00 in0.0 mm 0.00 in0.0 mm 0.00 in0.0 mm
09:26 AM 63.5°F17.5°C 61.4°F16.3°C 93% Calm Calm -- 29.72 in1006.4 mb 0.00 in0.0 mm 0.00 in0.0 mm 0.00 in0.0 mm
09:31 AM 63.5°F17.5°C 61.4°F16.3°C 93% Calm Calm -- 29.72 in1006.4 mb 0.00 in0.0 mm 0.00 in0.0 mm 0.00 in0.0 mm
09:36 AM 63.5°F17.5°C 61.7°F16.5°C 94% Calm Calm -- 29.72 in1006.4 mb 0.00 in0.0 mm 0.00 in0.0 mm 0.00 in0.0 mm
09:41 AM 63.4°F17.4°C 61.3°F16.3°C 93% Calm Calm -- 29.72 in1006.4 mb 0.00 in0.0 mm 0.00 in0.0 mm 0.00 in0.0 mm
09:46 AM 63.4°F17.4°C 61.3°F16.3°C 93% Calm Calm -- 29.72 in1006.4 mb 0.00 in0.0 mm 0.00 in0.0 mm 0.00 in0.0 mm
09:52 AM 63.3°F17.4°C 61.5°F16.4°C 94% Calm Calm 1.0 mph1.6 kmh 29.73 in1006.8 mb 0.00 in0.0 mm 0.00 in0.0 mm 0.00 in0.0 mm
09:57 AM 63.4°F17.4°C 61.6°F16.4°C 94% Calm Calm 1.0 mph1.6 kmh 29.73 in1006.8 mb 0.00 in0.0 mm 0.00 in0.0 mm 0.00 in0.0 mm
10:02 AM 63.5°F17.5°C 61.7°F16.5°C 94% Calm Calm 1.0 mph1.6 kmh 29.73 in1006.8 mb 0.00 in0.0 mm 0.00 in0.0 mm 0.00 in0.0 mm
10:07 AM 63.5°F17.5°C 61.7°F16.5°C 94% Calm Calm 1.0 mph1.6 kmh 29.73 in1006.8 mb 0.00 in0.0 mm 0.00 in0.0 mm 0.00 in0.0 mm
10:12 AM 63.5°F17.5°C 61.7°F16.5°C 94% Calm Calm -- 29.73 in1006.8 mb 0.00 in0.0 mm 0.00 in0.0 mm 0.00 in0.0 mm
10:17 AM 63.6°F17.6°C 61.8°F16.6°C 94% Calm Calm 1.0 mph1.6 kmh 29.73 in1006.8 mb 0.00 in0.0 mm 0.00 in0.0 mm 0.00 in0.0 mm
10:22 AM 63.6°F17.6°C 61.8°F16.6°C 94% Calm Calm 1.0 mph1.6 kmh 29.73 in1006.8 mb 0.00 in0.0 mm 0.00 in0.0 mm 0.00 in0.0 mm
10:27 AM 63.7°F17.6°C 61.9°F16.6°C 94% Calm Calm 1.0 mph1.6 kmh 29.73 in1006.8 mb 0.00 in0.0 mm 0.00 in0.0 mm 0.00 in0.0 mm
10:32 AM 63.8°F17.7°C 62.0°F16.7°C 94% Calm Calm 1.0 mph1.6 kmh 29.74 in1007.1 mb 0.00 in0.0 mm 0.00 in0.0 mm 0.00 in0.0 mm
10:37 AM 63.8°F17.7°C 62.0°F16.7°C 94% Calm Calm -- 29.74 in1007.1 mb 0.00 in0.0 mm 0.00 in0.0 mm 0.00 in0.0 mm
10:42 AM 63.9°F17.7°C 62.1°F16.7°C 94% Calm Calm -- 29.74 in1007.1 mb 0.00 in0.0 mm 0.00 in0.0 mm 0.00 in0.0 mm
10:47 AM 63.8°F17.7°C 62.0°F16.7°C 94% Calm Calm -- 29.74 in1007.1 mb 0.00 in0.0 mm 0.00 in0.0 mm 0.00 in0.0 mm
10:52 AM 63.8°F17.7°C 62.0°F16.7°C 94% Calm Calm -- 29.74 in1007.1 mb 0.00 in0.0 mm 0.00 in0.0 mm 0.00 in0.0 mm
10:57 AM 63.9°F17.7°C 62.1°F16.7°C 94% Calm Calm -- 29.74 in1007.1 mb 0.00 in0.0 mm 0.00 in0.0 mm 0.00 in0.0 mm
11:02 AM 64.0°F17.8°C 62.2°F16.8°C 94% Calm Calm -- 29.74 in1007.1 mb 0.00 in0.0 mm 0.00 in0.0 mm 0.00 in0.0 mm
11:07 AM 64.0°F17.8°C 62.2°F16.8°C 94% Calm Calm -- 29.75 in1007.5 mb 0.00 in0.0 mm 0.00 in0.0 mm 0.00 in0.0 mm
11:12 AM 64.0°F17.8°C 62.2°F16.8°C 94% Calm Calm -- 29.75 in1007.5 mb 0.00 in0.0 mm 0.00 in0.0 mm 0.00 in0.0 mm
11:17 AM 64.1°F17.8°C 62.3°F16.8°C 94% Calm Calm -- 29.75 in1007.5 mb 0.00 in0.0 mm 0.00 in0.0 mm 0.00 in0.0 mm
11:22 AM 64.1°F17.8°C 62.3°F16.8°C 94% Calm Calm -- 29.75 in1007.5 mb 0.00 in0.0 mm 0.00 in0.0 mm 0.00 in0.0 mm
11:27 AM 64.2°F17.9°C 62.4°F16.9°C 94% Calm Calm -- 29.75 in1007.5 mb 0.00 in0.0 mm 0.00 in0.0 mm 0.00 in0.0 mm
11:32 AM 64.3°F17.9°C 62.2°F16.8°C 93% Calm Calm -- 29.75 in1007.5 mb 0.00 in0.0 mm 0.00 in0.0 mm 0.00 in0.0 mm
11:37 AM 64.4°F18.0°C 62.3°F16.8°C 93% Calm Calm -- 29.75 in1007.5 mb 0.00 in0.0 mm 0.00 in0.0 mm 0.00 in0.0 mm
11:42 AM 64.5°F18.1°C 62.7°F17.1°C 94% Calm Calm -- 29.75 in1007.5 mb 0.00 in0.0 mm 0.00 in0.0 mm 0.00 in0.0 mm
11:47 AM 64.7°F18.2°C 62.6°F17.0°C 93% Calm Calm -- 29.75 in1007.5 mb 0.00 in0.0 mm 0.00 in0.0 mm 0.00 in0.0 mm
11:52 AM 64.9°F18.3°C 62.8°F17.1°C 93% Calm Calm -- 29.75 in1007.5 mb 0.00 in0.0 mm 0.00 in0.0 mm 0.00 in0.0 mm
11:57 AM 65.0°F18.3°C 62.9°F17.2°C 93% Calm Calm 1.0 mph1.6 kmh 29.75 in1007.5 mb 0.00 in0.0 mm 0.00 in0.0 mm 0.00 in0.0 mm
12:02 PM 65.1°F18.4°C 62.7°F17.1°C 92% Calm Calm 1.0 mph1.6 kmh 29.75 in1007.5 mb 0.00 in0.0 mm 0.00 in0.0 mm 0.00 in0.0 mm
12:07 PM 65.4°F18.6°C 63.3°F17.4°C 93% Calm Calm 1.0 mph1.6 kmh 29.75 in1007.5 mb 0.00 in0.0 mm 0.00 in0.0 mm 0.00 in0.0 mm
12:12 PM 65.5°F18.6°C 62.5°F16.9°C 90% Calm Calm 1.0 mph1.6 kmh 29.75 in1007.5 mb 0.00 in0.0 mm 0.00 in0.0 mm 0.00 in0.0 mm
12:17 PM 65.9°F18.8°C 62.9°F17.2°C 90% Calm Calm 1.0 mph1.6 kmh 29.75 in1007.5 mb 0.00 in0.0 mm 0.00 in0.0 mm 0.00 in0.0 mm
12:22 PM 66.3°F19.1°C 62.6°F17.0°C 88% Calm Calm 1.3 mph2.1 kmh 29.75 in1007.5 mb 0.00 in0.0 mm 0.00 in0.0 mm 0.00 in0.0 mm
12:27 PM 66.6°F19.2°C 63.2°F17.3°C 89% Calm Calm 1.3 mph2.1 kmh 29.75 in1007.5 mb 0.00 in0.0 mm 0.00 in0.0 mm 0.00 in0.0 mm
12:32 PM 66.8°F19.3°C 62.5°F16.9°C 86% 1.3 mph SE2.1 kmh SE 1.3 mph2.1 kmh 29.75 in1007.5 mb 0.00 in0.0 mm 0.00 in0.0 mm 0.00 in0.0 mm
12:37 PM 66.8°F19.3°C 62.8°F17.1°C 87% Calm Calm 1.3 mph2.1 kmh 29.75 in1007.5 mb 0.00 in0.0 mm 0.00 in0.0 mm 0.00 in0.0 mm
12:42 PM 66.8°F19.3°C 62.8°F17.1°C 87% 1.3 mph SE2.1 kmh SE 1.3 mph2.1 kmh 29.76 in1007.8 mb 0.00 in0.0 mm 0.00 in0.0 mm 0.00 in0.0 mm
12:47 PM 66.9°F19.4°C 62.9°F17.2°C 87% Calm Calm 1.3 mph2.1 kmh 29.76 in1007.8 mb 0.00 in0.0 mm 0.00 in0.0 mm 0.00 in0.0 mm
12:52 PM 67.1°F19.5°C 63.1°F17.3°C 87% Calm Calm 1.3 mph2.1 kmh 29.76 in1007.8 mb 0.00 in0.0 mm 0.00 in0.0 mm 0.00 in0.0 mm
12:57 PM 67.1°F19.5°C 62.8°F17.1°C 86% Calm Calm 1.0 mph1.6 kmh 29.76 in1007.8 mb 0.00 in0.0 mm 0.00 in0.0 mm 0.00 in0.0 mm
01:02 PM 67.2°F19.6°C 62.6°F17.0°C 85% Calm Calm 1.0 mph1.6 kmh 29.76 in1007.8 mb 0.00 in0.0 mm 0.00 in0.0 mm 0.00 in0.0 mm
01:07 PM 67.3°F19.6°C 62.7°F17.1°C 85% Calm Calm -- 29.76 in1007.8 mb 0.00 in0.0 mm 0.00 in0.0 mm 0.00 in0.0 mm
01:12 PM 67.4°F19.7°C 62.4°F16.9°C 84% Calm Calm -- 29.76 in1007.8 mb 0.00 in0.0 mm 0.00 in0.0 mm 0.00 in0.0 mm
01:17 PM 67.5°F19.7°C 62.9°F17.2°C 85% 1.3 mph SW2.1 kmh SW 1.3 mph2.1 kmh 29.76 in1007.8 mb 0.00 in0.0 mm 0.00 in0.0 mm 0.00 in0.0 mm
01:22 PM 67.4°F19.7°C 62.4°F16.9°C 84% 1.3 mph ESE2.1 kmh ESE 2.5 mph4.0 kmh 29.76 in1007.8 mb 0.00 in0.0 mm 0.00 in0.0 mm 0.00 in0.0 mm
01:27 PM 67.4°F19.7°C 62.1°F16.7°C 83% Calm Calm 2.5 mph4.0 kmh 29.76 in1007.8 mb 0.00 in0.0 mm 0.00 in0.0 mm 0.00 in0.0 mm
01:32 PM 67.5°F19.7°C 61.5°F16.4°C 81% 1.3 mph S2.1 kmh S 1.3 mph2.1 kmh 29.76 in1007.8 mb 0.00 in0.0 mm 0.00 in0.0 mm 0.00 in0.0 mm
01:37 PM 67.7°F19.8°C 62.4°F16.9°C 83% 1.3 mph S2.1 kmh S 1.3 mph2.1 kmh 29.76 in1007.8 mb 0.00 in0.0 mm 0.00 in0.0 mm 0.00 in0.0 mm
01:43 PM 67.9°F19.9°C 62.9°F17.2°C 84% Calm Calm 1.3 mph2.1 kmh 29.76 in1007.8 mb 0.00 in0.0 mm 0.00 in0.0 mm 0.00 in0.0 mm
01:48 PM 68.0°F20.0°C 62.7°F17.1°C 83% 1.3 mph SW2.1 kmh SW 2.5 mph4.0 kmh 29.75 in1007.5 mb 0.00 in0.0 mm 0.00 in0.0 mm 0.00 in0.0 mm
01:53 PM 68.2°F20.1°C 62.2°F16.8°C 81% 1.9 mph SW3.1 kmh SW 3.8 mph6.1 kmh 29.75 in1007.5 mb 0.00 in0.0 mm 0.00 in0.0 mm 0.00 in0.0 mm
01:58 PM 68.4°F20.2°C 61.7°F16.5°C 79% 2.3 mph SW3.7 kmh SW 10.0 mph16.1 kmh 29.75 in1007.5 mb 0.00 in0.0 mm 0.00 in0.0 mm 0.00 in0.0 mm
02:03 PM 68.4°F20.2°C 61.4°F16.3°C 78% 1.3 mph W2.1 kmh W 10.0 mph16.1 kmh 29.75 in1007.5 mb 0.00 in0.0 mm 0.00 in0.0 mm 0.00 in0.0 mm
02:08 PM 68.4°F20.2°C 61.7°F16.5°C 79% 1.3 mph WSW2.1 kmh WSW 8.8 mph14.2 kmh 29.76 in1007.8 mb 0.00 in0.0 mm 0.00 in0.0 mm 0.00 in0.0 mm
02:13 PM 68.2°F20.1°C 61.5°F16.4°C 79% 2.2 mph S3.5 kmh S 7.5 mph12.1 kmh 29.76 in1007.8 mb 0.00 in0.0 mm 0.00 in0.0 mm 0.00 in0.0 mm
02:18 PM 68.1°F20.1°C 61.4°F16.3°C 79% 1.3 mph SE2.1 kmh SE 6.3 mph10.1 kmh 29.76 in1007.8 mb 0.00 in0.0 mm 0.00 in0.0 mm 0.00 in0.0 mm
02:23 PM 67.8°F19.9°C 60.8°F16.0°C 78% 1.5 mph SSE2.4 kmh SSE 6.0 mph9.7 kmh 29.76 in1007.8 mb 0.00 in0.0 mm 0.00 in0.0 mm 0.00 in0.0 mm
02:28 PM 67.6°F19.8°C 60.6°F15.9°C 78% 1.4 mph SSW2.3 kmh SSW 5.0 mph8.0 kmh 29.76 in1007.8 mb 0.00 in0.0 mm 0.00 in0.0 mm 0.00 in0.0 mm
02:33 PM 67.5°F19.7°C 60.5°F15.8°C 78% 1.3 mph WSW2.1 kmh WSW 4.0 mph6.4 kmh 29.76 in1007.8 mb 0.00 in0.0 mm 0.00 in0.0 mm 0.00 in0.0 mm
02:38 PM 67.4°F19.7°C 61.4°F16.3°C 81% Calm Calm 2.0 mph3.2 kmh 29.76 in1007.8 mb 0.00 in0.0 mm 0.00 in0.0 mm 0.00 in0.0 mm
02:43 PM 67.2°F19.6°C 60.2°F15.7°C 78% 1.9 mph SSW3.1 kmh SSW 2.5 mph4.0 kmh 29.76 in1007.8 mb 0.00 in0.0 mm 0.00 in0.0 mm 0.00 in0.0 mm
02:48 PM 67.1°F19.5°C 61.1°F16.2°C 81% 2.4 mph S3.9 kmh S 6.3 mph10.1 kmh 29.76 in1007.8 mb 0.00 in0.0 mm 0.00 in0.0 mm 0.00 in0.0 mm
02:53 PM 66.7°F19.3°C 61.1°F16.2°C 82% 1.4 mph SSW2.3 kmh SSW 6.3 mph10.1 kmh 29.76 in1007.8 mb 0.00 in0.0 mm 0.00 in0.0 mm 0.00 in0.0 mm
02:58 PM 66.4°F19.1°C 61.4°F16.3°C 84% 2.1 mph S3.4 kmh S 6.3 mph10.1 kmh 29.76 in1007.8 mb 0.00 in0.0 mm 0.00 in0.0 mm 0.00 in0.0 mm
03:03 PM 66.2°F19.0°C 61.6°F16.4°C 85% 1.5 mph SE2.4 kmh SE 6.3 mph10.1 kmh 29.76 in1007.8 mb 0.00 in0.0 mm 0.00 in0.0 mm 0.00 in0.0 mm
03:08 PM 65.8°F18.8°C 61.5°F16.4°C 86% 2.3 mph S3.7 kmh S 5.0 mph8.0 kmh 29.76 in1007.8 mb 0.00 in0.0 mm 0.00 in0.0 mm 0.00 in0.0 mm
03:13 PM 65.6°F18.7°C 61.9°F16.6°C 88% 1.9 mph SSE3.1 kmh SSE 5.0 mph8.0 kmh 29.76 in1007.8 mb 0.00 in0.0 mm 0.00 in0.0 mm 0.00 in0.0 mm
03:18 PM 65.5°F18.6°C 61.8°F16.6°C 88% 3.1 mph SSE5.0 kmh SSE 5.0 mph8.0 kmh 29.76 in1007.8 mb 0.00 in0.0 mm 0.00 in0.0 mm 0.00 in0.0 mm
03:23 PM 65.3°F18.5°C 62.0°F16.7°C 89% 1.8 mph SSE2.9 kmh SSE 5.0 mph8.0 kmh 29.76 in1007.8 mb 0.00 in0.0 mm 0.00 in0.0 mm 0.00 in0.0 mm
03:28 PM 65.0°F18.3°C 61.3°F16.3°C 88% 1.6 mph SSE2.6 kmh SSE 5.0 mph8.0 kmh 29.77 in1008.1 mb 0.00 in0.0 mm 0.00 in0.0 mm 0.00 in0.0 mm
03:33 PM 64.9°F18.3°C 61.6°F16.4°C 89% 1.3 mph S2.1 kmh S 5.0 mph8.0 kmh 29.77 in1008.1 mb 0.00 in0.0 mm 0.00 in0.0 mm 0.00 in0.0 mm
03:38 PM 64.7°F18.2°C 61.7°F16.5°C 90% 1.3 mph SSW2.1 kmh SSW 4.0 mph6.4 kmh 29.77 in1008.1 mb 0.00 in0.0 mm 0.00 in0.0 mm 0.00 in0.0 mm
03:43 PM 64.5°F18.1°C 61.2°F16.2°C 89% 2.6 mph S4.2 kmh S 5.0 mph8.0 kmh 29.77 in1008.1 mb 0.00 in0.0 mm 0.00 in0.0 mm 0.00 in0.0 mm
03:48 PM 64.3°F17.9°C 61.0°F16.1°C 89% 2.3 mph S3.7 kmh S 6.3 mph10.1 kmh 29.77 in1008.1 mb 0.00 in0.0 mm 0.00 in0.0 mm 0.00 in0.0 mm
03:53 PM 64.1°F17.8°C 61.1°F16.2°C 90% 1.8 mph S2.9 kmh S 6.3 mph10.1 kmh 29.77 in1008.1 mb 0.00 in0.0 mm 0.00 in0.0 mm 0.00 in0.0 mm
03:58 PM 63.9°F17.7°C 60.9°F16.1°C 90% 2.7 mph S4.3 kmh S 5.0 mph8.0 kmh 29.77 in1008.1 mb 0.00 in0.0 mm 0.00 in0.0 mm 0.00 in0.0 mm
04:03 PM 63.8°F17.7°C 60.8°F16.0°C 90% 2.6 mph S4.2 kmh S 6.3 mph10.1 kmh 29.78 in1008.5 mb 0.00 in0.0 mm 0.00 in0.0 mm 0.00 in0.0 mm
04:08 PM 63.7°F17.6°C 60.7°F15.9°C 90% 3.0 mph S4.8 kmh S 6.3 mph10.1 kmh 29.78 in1008.5 mb 0.00 in0.0 mm 0.00 in0.0 mm 0.00 in0.0 mm
04:13 PM 63.5°F17.5°C 60.8°F16.0°C 91% 1.7 mph S2.7 kmh S 6.3 mph10.1 kmh 29.78 in1008.5 mb 0.00 in0.0 mm 0.00 in0.0 mm 0.00 in0.0 mm
04:18 PM 63.4°F17.4°C 60.7°F15.9°C 91% 1.8 mph SSE2.9 kmh SSE 5.0 mph8.0 kmh 29.78 in1008.5 mb 0.00 in0.0 mm 0.00 in0.0 mm 0.00 in0.0 mm
04:24 PM 63.3°F17.4°C 60.6°F15.9°C 91% Calm Calm 5.0 mph8.0 kmh 29.78 in1008.5 mb 0.00 in0.0 mm 0.00 in0.0 mm 0.00 in0.0 mm
04:28 PM 63.2°F17.3°C 60.2°F15.7°C 90% Calm Calm 4.0 mph6.4 kmh 29.78 in1008.5 mb 0.00 in0.0 mm 0.00 in0.0 mm 0.00 in0.0 mm
04:34 PM 63.3°F17.4°C 60.6°F15.9°C 91% Calm Calm 3.0 mph4.8 kmh 29.78 in1008.5 mb 0.00 in0.0 mm 0.00 in0.0 mm 0.00 in0.0 mm
04:39 PM 63.3°F17.4°C 60.6°F15.9°C 91% 1.3 mph S2.1 kmh S 3.0 mph4.8 kmh 29.78 in1008.5 mb 0.00 in0.0 mm 0.00 in0.0 mm 0.00 in0.0 mm
04:44 PM 63.2°F17.3°C 60.5°F15.8°C 91% 1.4 mph SW2.3 kmh SW 2.5 mph4.0 kmh 29.78 in1008.5 mb 0.00 in0.0 mm 0.00 in0.0 mm 0.00 in0.0 mm
04:49 PM 63.1°F17.3°C 60.4°F15.8°C 91% 1.3 mph SSW2.1 kmh SSW 2.5 mph4.0 kmh 29.79 in1008.8 mb 0.00 in0.0 mm 0.00 in0.0 mm 0.00 in0.0 mm
04:54 PM 63.0°F17.2°C 60.3°F15.7°C 91% Calm Calm 2.0 mph3.2 kmh 29.79 in1008.8 mb 0.00 in0.0 mm 0.00 in0.0 mm 0.00 in0.0 mm
04:59 PM 63.0°F17.2°C 60.6°F15.9°C 92% Calm Calm 2.0 mph3.2 kmh 29.79 in1008.8 mb 0.00 in0.0 mm 0.00 in0.0 mm 0.00 in0.0 mm
05:04 PM 62.9°F17.2°C 60.2°F15.7°C 91% 1.3 mph SSW2.1 kmh SSW 2.0 mph3.2 kmh 29.79 in1008.8 mb 0.00 in0.0 mm 0.00 in0.0 mm 0.00 in0.0 mm
05:09 PM 62.8°F17.1°C 60.4°F15.8°C 92% Calm Calm 1.3 mph2.1 kmh 29.79 in1008.8 mb 0.00 in0.0 mm 0.00 in0.0 mm 0.00 in0.0 mm
05:14 PM 62.8°F17.1°C 60.4°F15.8°C 92% Calm Calm 1.0 mph1.6 kmh 29.79 in1008.8 mb 0.00 in0.0 mm 0.00 in0.0 mm 0.00 in0.0 mm
05:19 PM 62.8°F17.1°C 60.1°F15.6°C 91% 1.8 mph SSW2.9 kmh SSW 2.5 mph4.0 kmh 29.79 in1008.8 mb 0.00 in0.0 mm 0.00 in0.0 mm 0.00 in0.0 mm
05:24 PM 62.7°F17.1°C 60.0°F15.6°C 91% 1.3 mph SE2.1 kmh SE 2.5 mph4.0 kmh 29.79 in1008.8 mb 0.00 in0.0 mm 0.00 in0.0 mm 0.00 in0.0 mm
05:29 PM 62.8°F17.1°C 60.4°F15.8°C 92% 1.3 mph N2.1 kmh N 2.0 mph3.2 kmh 29.79 in1008.8 mb 0.00 in0.0 mm 0.00 in0.0 mm 0.00 in0.0 mm
05:34 PM 62.7°F17.1°C 60.3°F15.7°C 92% Calm Calm 2.0 mph3.2 kmh 29.79 in1008.8 mb 0.00 in0.0 mm 0.00 in0.0 mm 0.00 in0.0 mm
05:39 PM 62.8°F17.1°C 60.4°F15.8°C 92% Calm Calm 1.0 mph1.6 kmh 29.79 in1008.8 mb 0.00 in0.0 mm 0.00 in0.0 mm 0.00 in0.0 mm
05:44 PM 62.7°F17.1°C 60.3°F15.7°C 92% 1.3 mph NNW2.1 kmh NNW 1.3 mph2.1 kmh 29.79 in1008.8 mb 0.00 in0.0 mm 0.00 in0.0 mm 0.00 in0.0 mm
05:49 PM 62.7°F17.1°C 60.6°F15.9°C 93% Calm Calm 1.3 mph2.1 kmh 29.79 in1008.8 mb 0.00 in0.0 mm 0.00 in0.0 mm 0.00 in0.0 mm
05:54 PM 62.7°F17.1°C 60.6°F15.9°C 93% Calm Calm 1.3 mph2.1 kmh 29.79 in1008.8 mb 0.00 in0.0 mm 0.00 in0.0 mm 0.00 in0.0 mm
05:59 PM 62.6°F17.0°C 60.5°F15.8°C 93% Calm Calm 1.0 mph1.6 kmh 29.80 in1009.1 mb 0.00 in0.0 mm 0.00 in0.0 mm 0.00 in0.0 mm
06:04 PM 62.6°F17.0°C 60.5°F15.8°C 93% Calm Calm 1.0 mph1.6 kmh 29.80 in1009.1 mb 0.00 in0.0 mm 0.00 in0.0 mm 0.00 in0.0 mm
06:09 PM 62.6°F17.0°C 60.5°F15.8°C 93% Calm Calm -- 29.80 in1009.1 mb 0.00 in0.0 mm 0.00 in0.0 mm 0.00 in0.0 mm
06:14 PM 62.6°F17.0°C 60.8°F16.0°C 94% Calm Calm -- 29.80 in1009.1 mb 0.00 in0.0 mm 0.00 in0.0 mm 0.00 in0.0 mm
06:19 PM 62.6°F17.0°C 60.8°F16.0°C 94% Calm Calm -- 29.80 in1009.1 mb 0.00 in0.0 mm 0.00 in0.0 mm 0.00 in0.0 mm
06:24 PM 62.5°F16.9°C 60.7°F15.9°C 94% Calm Calm -- 29.80 in1009.1 mb 0.00 in0.0 mm 0.00 in0.0 mm 0.00 in0.0 mm
06:29 PM 62.5°F16.9°C 60.7°F15.9°C 94% Calm Calm -- 29.80 in1009.1 mb 0.00 in0.0 mm 0.00 in0.0 mm 0.00 in0.0 mm
06:34 PM 62.5°F16.9°C 60.7°F15.9°C 94% Calm Calm -- 29.80 in1009.1 mb 0.00 in0.0 mm 0.00 in0.0 mm 0.00 in0.0 mm
06:39 PM 62.4°F16.9°C 60.6°F15.9°C 94% Calm Calm -- 29.80 in1009.1 mb 0.00 in0.0 mm 0.00 in0.0 mm 0.00 in0.0 mm
06:44 PM 62.3°F16.8°C 60.5°F15.8°C 94% Calm Calm -- 29.80 in1009.1 mb 0.00 in0.0 mm 0.00 in0.0 mm 0.00 in0.0 mm
06:49 PM 62.3°F16.8°C 60.5°F15.8°C 94% Calm Calm -- 29.80 in1009.1 mb 0.00 in0.0 mm 0.00 in0.0 mm 0.00 in0.0 mm
06:54 PM 62.2°F16.8°C 60.4°F15.8°C 94% Calm Calm -- 29.80 in1009.1 mb 0.00 in0.0 mm 0.00 in0.0 mm 0.00 in0.0 mm
06:59 PM 62.2°F16.8°C 60.4°F15.8°C 94% Calm Calm -- 29.80 in1009.1 mb 0.00 in0.0 mm 0.00 in0.0 mm 0.00 in0.0 mm
07:04 PM 62.1°F16.7°C 60.3°F15.7°C 94% Calm Calm -- 29.81 in1009.5 mb 0.00 in0.0 mm 0.00 in0.0 mm 0.00 in0.0 mm
07:09 PM 62.0°F16.7°C 60.2°F15.7°C 94% 1.6 mph SSE2.6 kmh SSE 3.0 mph4.8 kmh 29.81 in1009.5 mb 0.00 in0.0 mm 0.00 in0.0 mm 0.00 in0.0 mm
07:14 PM 61.8°F16.6°C 59.7°F15.4°C 93% 3.8 mph SW6.1 kmh SW 6.3 mph10.1 kmh 29.81 in1009.5 mb 0.00 in0.0 mm 0.00 in0.0 mm 0.00 in0.0 mm
07:19 PM 61.8°F16.6°C 59.7°F15.4°C 93% 2.3 mph SW3.7 kmh SW 6.3 mph10.1 kmh 29.81 in1009.5 mb 0.00 in0.0 mm 0.00 in0.0 mm 0.00 in0.0 mm
07:24 PM 61.7°F16.5°C 59.6°F15.3°C 93% 1.3 mph SSW2.1 kmh SSW 5.0 mph8.0 kmh 29.82 in1009.8 mb 0.00 in0.0 mm 0.00 in0.0 mm 0.00 in0.0 mm
07:29 PM 61.6°F16.4°C 59.5°F15.3°C 93% Calm Calm 5.0 mph8.0 kmh 29.82 in1009.8 mb 0.00 in0.0 mm 0.00 in0.0 mm 0.00 in0.0 mm
07:34 PM 61.4°F16.3°C 59.3°F15.2°C 93% 1.3 mph S2.1 kmh S 3.0 mph4.8 kmh 29.82 in1009.8 mb 0.00 in0.0 mm 0.00 in0.0 mm 0.00 in0.0 mm
07:39 PM 61.4°F16.3°C 59.3°F15.2°C 93% 1.3 mph SW2.1 kmh SW 3.0 mph4.8 kmh 29.82 in1009.8 mb 0.00 in0.0 mm 0.00 in0.0 mm 0.00 in0.0 mm
07:44 PM 61.3°F16.3°C 59.5°F15.3°C 94% 1.5 mph SW2.4 kmh SW 5.0 mph8.0 kmh 29.82 in1009.8 mb 0.00 in0.0 mm 0.00 in0.0 mm 0.00 in0.0 mm
07:49 PM 61.2°F16.2°C 59.4°F15.2°C 94% Calm Calm 5.0 mph8.0 kmh 29.82 in1009.8 mb 0.00 in0.0 mm 0.00 in0.0 mm 0.00 in0.0 mm
07:54 PM 61.2°F16.2°C 59.4°F15.2°C 94% 1.9 mph SW3.1 kmh SW 3.8 mph6.1 kmh 29.82 in1009.8 mb 0.00 in0.0 mm 0.00 in0.0 mm 0.00 in0.0 mm
07:59 PM 61.2°F16.2°C 59.4°F15.2°C 94% 1.3 mph W2.1 kmh W 3.8 mph6.1 kmh 29.82 in1009.8 mb 0.00 in0.0 mm 0.00 in0.0 mm 0.00 in0.0 mm
08:04 PM 61.1°F16.2°C 59.3°F15.2°C 94% 1.3 mph SSE2.1 kmh SSE 3.0 mph4.8 kmh 29.83 in1010.2 mb 0.00 in0.0 mm 0.00 in0.0 mm 0.00 in0.0 mm
08:09 PM 61.1°F16.2°C 59.3°F15.2°C 94% Calm Calm 3.0 mph4.8 kmh 29.83 in1010.2 mb 0.01 in0.3 mm 0.12 in3.0 mm 0.01 in0.3 mm
08:14 PM 61.0°F16.1°C 59.5°F15.3°C 95% 1.9 mph WSW3.1 kmh WSW 3.8 mph6.1 kmh 29.83 in1010.2 mb 0.01 in0.3 mm 0.00 in0.0 mm 0.01 in0.3 mm
08:19 PM 61.0°F16.1°C 59.5°F15.3°C 95% 2.9 mph SW4.7 kmh SW 5.0 mph8.0 kmh 29.83 in1010.2 mb 0.01 in0.3 mm 0.00 in0.0 mm 0.01 in0.3 mm
08:24 PM 61.0°F16.1°C 59.5°F15.3°C 95% 1.3 mph SSW2.1 kmh SSW 5.0 mph8.0 kmh 29.83 in1010.2 mb 0.01 in0.3 mm 0.00 in0.0 mm 0.01 in0.3 mm
08:29 PM 60.9°F16.1°C 59.4°F15.2°C 95% Calm Calm 4.0 mph6.4 kmh 29.83 in1010.2 mb 0.01 in0.3 mm 0.00 in0.0 mm 0.01 in0.3 mm
08:34 PM 60.9°F16.1°C 59.4°F15.2°C 95% 1.3 mph NE2.1 kmh NE 3.0 mph4.8 kmh 29.83 in1010.2 mb 0.01 in0.3 mm 0.00 in0.0 mm 0.01 in0.3 mm
08:39 PM 60.8°F16.0°C 59.3°F15.2°C 95% 1.3 mph NE2.1 kmh NE 2.0 mph3.2 kmh 29.83 in1010.2 mb 0.02 in0.5 mm 0.12 in3.0 mm 0.02 in0.5 mm
08:44 PM 60.8°F16.0°C 59.3°F15.2°C 95% Calm Calm 2.0 mph3.2 kmh 29.83 in1010.2 mb 0.02 in0.5 mm 0.00 in0.0 mm 0.02 in0.5 mm
08:49 PM 60.8°F16.0°C 59.3°F15.2°C 95% 1.3 mph N2.1 kmh N 1.3 mph2.1 kmh 29.83 in1010.2 mb 0.02 in0.5 mm 0.00 in0.0 mm 0.02 in0.5 mm
08:54 PM 60.7°F15.9°C 59.2°F15.1°C 95% Calm Calm 1.3 mph2.1 kmh 29.83 in1010.2 mb 0.02 in0.5 mm 0.00 in0.0 mm 0.02 in0.5 mm
09:00 PM 60.7°F15.9°C 59.2°F15.1°C 95% 1.3 mph N2.1 kmh N 1.3 mph2.1 kmh 29.83 in1010.2 mb 0.02 in0.5 mm 0.00 in0.0 mm 0.02 in0.5 mm
09:05 PM 60.7°F15.9°C 59.2°F15.1°C 95% Calm Calm 1.3 mph2.1 kmh 29.83 in1010.2 mb 0.02 in0.5 mm 0.00 in0.0 mm 0.02 in0.5 mm
09:10 PM 60.6°F15.9°C 59.1°F15.1°C 95% Calm Calm 1.3 mph2.1 kmh 29.83 in1010.2 mb 0.01 in0.3 mm 0.00 in0.0 mm 0.02 in0.5 mm
09:15 PM 60.6°F15.9°C 59.1°F15.1°C 95% Calm Calm 1.3 mph2.1 kmh 29.83 in1010.2 mb 0.01 in0.3 mm 0.00 in0.0 mm 0.02 in0.5 mm
09:20 PM 60.6°F15.9°C 59.1°F15.1°C 95% Calm Calm 1.3 mph2.1 kmh 29.83 in1010.2 mb 0.01 in0.3 mm 0.00 in0.0 mm 0.02 in0.5 mm
09:25 PM 60.6°F15.9°C 59.1°F15.1°C 95% Calm Calm 1.0 mph1.6 kmh 29.83 in1010.2 mb 0.01 in0.3 mm 0.00 in0.0 mm 0.02 in0.5 mm
09:30 PM 60.6°F15.9°C 59.1°F15.1°C 95% Calm Calm -- 29.83 in1010.2 mb 0.01 in0.3 mm 0.00 in0.0 mm 0.02 in0.5 mm
09:35 PM 60.6°F15.9°C 59.1°F15.1°C 95% Calm Calm 1.0 mph1.6 kmh 29.84 in1010.5 mb 0.01 in0.3 mm 0.00 in0.0 mm 0.02 in0.5 mm
09:40 PM 60.6°F15.9°C 59.1°F15.1°C 95% Calm Calm 1.0 mph1.6 kmh 29.83 in1010.2 mb 0.00 in0.0 mm 0.00 in0.0 mm 0.02 in0.5 mm
09:45 PM 60.6°F15.9°C 59.1°F15.1°C 95% 1.3 mph WSW2.1 kmh WSW 1.3 mph2.1 kmh 29.83 in1010.2 mb 0.00 in0.0 mm 0.00 in0.0 mm 0.02 in0.5 mm
09:50 PM 60.6°F15.9°C 59.1°F15.1°C 95% 1.3 mph SW2.1 kmh SW 1.3 mph2.1 kmh 29.84 in1010.5 mb 0.00 in0.0 mm 0.00 in0.0 mm 0.02 in0.5 mm
09:55 PM 60.5°F15.8°C 59.1°F15.1°C 95% Calm Calm 1.3 mph2.1 kmh 29.84 in1010.5 mb 0.00 in0.0 mm 0.00 in0.0 mm 0.02 in0.5 mm
10:00 PM 60.5°F15.8°C 59.1°F15.1°C 95% 1.3 mph SSW2.1 kmh SSW 2.5 mph4.0 kmh 29.84 in1010.5 mb 0.00 in0.0 mm 0.00 in0.0 mm 0.02 in0.5 mm
10:05 PM 60.5°F15.8°C 59.1°F15.1°C 95% Calm Calm 2.5 mph4.0 kmh 29.84 in1010.5 mb 0.00 in0.0 mm 0.00 in0.0 mm 0.02 in0.5 mm
10:10 PM 60.5°F15.8°C 59.0°F15.0°C 95% 2.0 mph SSE3.2 kmh SSE 2.5 mph4.0 kmh 29.84 in1010.5 mb 0.00 in0.0 mm 0.00 in0.0 mm 0.02 in0.5 mm
10:15 PM 60.5°F15.8°C 59.0°F15.0°C 95% 1.3 mph SW2.1 kmh SW 2.5 mph4.0 kmh 29.84 in1010.5 mb 0.00 in0.0 mm 0.00 in0.0 mm 0.02 in0.5 mm
10:20 PM 60.5°F15.8°C 59.0°F15.0°C 95% 1.3 mph S2.1 kmh S 2.0 mph3.2 kmh 29.84 in1010.5 mb 0.00 in0.0 mm 0.00 in0.0 mm 0.02 in0.5 mm
10:25 PM 60.5°F15.8°C 59.0°F15.0°C 95% Calm Calm 2.0 mph3.2 kmh 29.84 in1010.5 mb 0.00 in0.0 mm 0.00 in0.0 mm 0.02 in0.5 mm
10:30 PM 60.5°F15.8°C 59.1°F15.1°C 95% 1.3 mph SSW2.1 kmh SSW 2.5 mph4.0 kmh 29.84 in1010.5 mb 0.00 in0.0 mm 0.00 in0.0 mm 0.02 in0.5 mm
10:35 PM 60.5°F15.8°C 59.0°F15.0°C 95% 1.3 mph SSW2.1 kmh SSW 2.5 mph4.0 kmh 29.84 in1010.5 mb 0.00 in0.0 mm 0.00 in0.0 mm 0.02 in0.5 mm
10:40 PM 60.5°F15.8°C 59.0°F15.0°C 95% Calm Calm 2.0 mph3.2 kmh 29.84 in1010.5 mb 0.00 in0.0 mm 0.00 in0.0 mm 0.02 in0.5 mm
10:45 PM 60.5°F15.8°C 59.0°F15.0°C 95% Calm Calm 1.3 mph2.1 kmh 29.84 in1010.5 mb 0.00 in0.0 mm 0.00 in0.0 mm 0.02 in0.5 mm
10:50 PM 60.5°F15.8°C 59.0°F15.0°C 95% 1.3 mph WNW2.1 kmh WNW 1.3 mph2.1 kmh 29.84 in1010.5 mb 0.01 in0.3 mm 0.12 in3.0 mm 0.03 in0.8 mm
10:55 PM 60.5°F15.8°C 59.0°F15.0°C 95% 1.5 mph S2.4 kmh S 2.5 mph4.0 kmh 29.84 in1010.5 mb 0.01 in0.3 mm 0.00 in0.0 mm 0.03 in0.8 mm
11:00 PM 60.5°F15.8°C 59.0°F15.0°C 95% Calm Calm 6.3 mph10.1 kmh 29.84 in1010.5 mb 0.01 in0.3 mm 0.00 in0.0 mm 0.03 in0.8 mm
11:05 PM 60.6°F15.9°C 59.1°F15.1°C 95% 1.5 mph NE2.4 kmh NE 6.3 mph10.1 kmh 29.85 in1010.8 mb 0.01 in0.3 mm 0.00 in0.0 mm 0.03 in0.8 mm
11:10 PM 60.6°F15.9°C 59.1°F15.1°C 95% 2.1 mph S3.4 kmh S 5.0 mph8.0 kmh 29.84 in1010.5 mb 0.01 in0.3 mm 0.00 in0.0 mm 0.03 in0.8 mm
11:15 PM 60.7°F15.9°C 59.2°F15.1°C 95% 3.1 mph SW5.0 kmh SW 7.5 mph12.1 kmh 29.84 in1010.5 mb 0.01 in0.3 mm 0.00 in0.0 mm 0.03 in0.8 mm
11:20 PM 60.7°F15.9°C 59.0°F15.0°C 94% 3.2 mph S5.1 kmh S 7.5 mph12.1 kmh 29.84 in1010.5 mb 0.01 in0.3 mm 0.00 in0.0 mm 0.03 in0.8 mm
11:25 PM 60.8°F16.0°C 59.1°F15.1°C 94% 1.7 mph SSW2.7 kmh SSW 6.0 mph9.7 kmh 29.84 in1010.5 mb 0.01 in0.3 mm 0.00 in0.0 mm 0.03 in0.8 mm
11:30 PM 60.8°F16.0°C 59.1°F15.1°C 94% Calm Calm 6.0 mph9.7 kmh 29.84 in1010.5 mb 0.01 in0.3 mm 0.00 in0.0 mm 0.03 in0.8 mm
11:35 PM 60.7°F15.9°C 58.9°F14.9°C 94% 1.8 mph SSE2.9 kmh SSE 5.0 mph8.0 kmh 29.84 in1010.5 mb 0.01 in0.3 mm 0.00 in0.0 mm 0.03 in0.8 mm
11:40 PM 60.6°F15.9°C 58.8°F14.9°C 94% Calm Calm 3.8 mph6.1 kmh 29.84 in1010.5 mb 0.01 in0.3 mm 0.00 in0.0 mm 0.03 in0.8 mm
11:45 PM 60.5°F15.8°C 58.7°F14.8°C 94% Calm Calm 3.0 mph4.8 kmh 29.84 in1010.5 mb 0.01 in0.3 mm 0.00 in0.0 mm 0.03 in0.8 mm
11:50 PM 60.4°F15.8°C 58.6°F14.8°C 94% Calm Calm 3.0 mph4.8 kmh 29.84 in1010.5 mb 0.00 in0.0 mm 0.00 in0.0 mm 0.03 in0.8 mm
11:55 PM 60.4°F15.8°C 58.9°F14.9°C 95% Calm Calm 1.0 mph1.6 kmh 29.85 in1010.8 mb 0.00 in0.0 mm 0.00 in0.0 mm 0.03 in0.8 mm